createdAt,value
2023-05-02T00:01:59.438Z,20.44
2023-05-02T00:04:26.488Z,20.35
2023-05-02T00:06:53.935Z,20.38
2023-05-02T00:09:21.604Z,20.19
2023-05-02T00:11:48.551Z,20.22
2023-05-02T00:14:15.733Z,20.33
2023-05-02T00:16:42.700Z,20.26
2023-05-02T00:19:09.769Z,20.33
2023-05-02T00:21:36.829Z,20.23
2023-05-02T00:24:03.997Z,20.21
2023-05-02T00:26:31.047Z,20.18
2023-05-02T00:28:58.961Z,20.21
2023-05-02T00:31:26.083Z,20.14
2023-05-02T00:33:53.088Z,20.11
2023-05-02T00:36:20.377Z,20.19
2023-05-02T00:38:47.462Z,20.13
2023-05-02T00:41:14.487Z,20.15
2023-05-02T00:43:41.463Z,20.03
2023-05-02T00:46:08.679Z,20.03
2023-05-02T00:48:36.566Z,19.94
2023-05-02T00:51:08.520Z,19.93
2023-05-02T00:53:36.469Z,19.99
2023-05-02T00:56:03.830Z,19.99
2023-05-02T00:58:31.025Z,19.96
2023-05-02T01:01:47.126Z,20.14
2023-05-02T01:04:40.581Z,20.07
2023-05-02T01:07:27.898Z,20.11
2023-05-02T01:10:22.245Z,20.20
2023-05-02T01:13:05.198Z,20.14
2023-05-02T01:15:35.109Z,20.00
2023-05-02T01:18:04.461Z,19.94
2023-05-02T01:20:37.102Z,19.93
2023-05-02T01:23:16.633Z,19.97
2023-05-02T01:26:31.381Z,20.01
2023-05-02T01:29:05.099Z,19.91
2023-05-02T01:31:38.900Z,19.83
2023-05-02T01:34:12.383Z,19.89
2023-05-02T01:36:45.061Z,19.87
2023-05-02T01:39:17.009Z,19.78
2023-05-02T01:41:46.965Z,19.75
2023-05-02T01:44:17.300Z,19.81
2023-05-02T01:46:46.492Z,19.67
2023-05-02T01:49:13.847Z,19.60
2023-05-02T01:51:48.032Z,19.73
2023-05-02T01:54:17.768Z,19.73
2023-05-02T01:56:46.485Z,19.70
2023-05-02T01:59:19.989Z,19.75
2023-05-02T02:01:50.372Z,19.75
2023-05-02T02:04:19.734Z,19.64
2023-05-02T02:06:52.743Z,19.71
2023-05-02T02:09:20.823Z,19.49
2023-05-02T02:11:53.821Z,19.73
2023-05-02T02:14:26.009Z,19.74
2023-05-02T02:16:56.706Z,19.75
2023-05-02T02:19:24.808Z,19.67
2023-05-02T02:21:53.065Z,19.67
2023-05-02T02:24:21.973Z,19.62
2023-05-02T02:26:48.905Z,19.33
2023-05-02T02:29:15.910Z,19.43
2023-05-02T02:31:42.917Z,19.33
2023-05-02T02:34:09.947Z,19.36
2023-05-02T02:37:00.996Z,19.53
2023-05-02T02:39:46.574Z,19.50
2023-05-02T02:42:45.695Z,19.46
2023-05-02T02:45:36.763Z,19.38
2023-05-02T02:48:40.881Z,19.38
2023-05-02T02:51:25.559Z,19.35
2023-05-02T02:53:58.364Z,19.29
2023-05-02T02:56:45.558Z,19.23
2023-05-02T02:59:29.892Z,19.26
2023-05-02T03:02:13.275Z,19.17
2023-05-02T03:04:43.699Z,18.97
2023-05-02T03:07:10.932Z,18.79
2023-05-02T03:09:47.031Z,19.12
2023-05-02T03:12:19.811Z,18.86
2023-05-02T03:14:48.343Z,18.88
2023-05-02T03:17:15.366Z,18.86
2023-05-02T03:19:42.648Z,18.80
2023-05-02T03:22:10.059Z,18.79
2023-05-02T03:24:37.225Z,18.83
2023-05-02T03:27:04.959Z,18.90
2023-05-02T03:29:38.812Z,18.87
2023-05-02T03:32:06.123Z,18.71
2023-05-02T03:34:33.932Z,18.75
2023-05-02T03:37:01.381Z,18.77
2023-05-02T03:39:29.648Z,18.62
2023-05-02T03:41:56.661Z,18.66
2023-05-02T03:44:24.970Z,18.66
2023-05-02T03:46:52.591Z,18.73
2023-05-02T03:49:20.456Z,18.59
2023-05-02T03:51:49.730Z,18.63
2023-05-02T03:54:22.188Z,18.56
2023-05-02T03:56:49.864Z,18.56
2023-05-02T03:59:25.070Z,18.63
2023-05-02T04:01:52.780Z,18.63
2023-05-02T04:04:25.454Z,18.51
2023-05-02T04:06:54.595Z,18.64
2023-05-02T04:09:25.316Z,18.05
2023-05-02T04:12:00.398Z,18.48
2023-05-02T04:14:28.016Z,18.55
2023-05-02T04:16:56.821Z,18.62
2023-05-02T04:19:35.842Z,19.05
2023-05-02T04:22:03.828Z,19.04
2023-05-02T04:24:34.699Z,19.05
2023-05-02T04:27:02.937Z,19.13
2023-05-02T04:29:30.131Z,19.04
2023-05-02T04:31:57.326Z,18.99
2023-05-02T04:34:27.653Z,19.05
2023-05-02T04:36:55.273Z,19.04
2023-05-02T04:39:24.741Z,19.12
2023-05-02T04:41:59.818Z,19.08
2023-05-02T04:44:28.693Z,19.08
2023-05-02T04:46:57.479Z,19.09
2023-05-02T04:49:24.457Z,19.02
2023-05-02T04:51:52.987Z,19.07
2023-05-02T04:54:21.953Z,18.91
2023-05-02T04:56:49.336Z,19.16
2023-05-02T04:59:17.098Z,19.04
2023-05-02T05:01:45.340Z,19.07
2023-05-02T05:04:12.552Z,19.00
2023-05-02T05:06:39.637Z,19.13
2023-05-02T05:09:07.218Z,19.23
2023-05-02T05:11:35.885Z,19.12
2023-05-02T05:14:04.341Z,18.77
2023-05-02T05:16:33.869Z,18.71
2023-05-02T05:19:01.763Z,18.62
2023-05-02T05:21:29.142Z,18.42
2023-05-02T05:23:58.210Z,18.62
2023-05-02T05:26:28.401Z,18.50
2023-05-02T05:28:55.892Z,18.44
2023-05-02T05:31:25.852Z,18.51
2023-05-02T05:33:57.290Z,18.47
2023-05-02T05:36:25.762Z,18.48
2023-05-02T05:38:52.783Z,18.61
2023-05-02T05:41:20.266Z,18.85
2023-05-02T05:43:52.344Z,18.65
2023-05-02T05:46:19.772Z,18.74
2023-05-02T05:48:46.712Z,18.94
2023-05-02T05:51:13.702Z,18.92
2023-05-02T05:53:41.143Z,18.93
2023-05-02T05:56:12.205Z,18.53
2023-05-02T05:58:44.315Z,19.03
2023-05-02T06:01:13.387Z,19.14
2023-05-02T06:03:41.130Z,19.34
2023-05-02T06:06:08.357Z,19.35
2023-05-02T06:08:35.323Z,19.43
2023-05-02T06:11:02.465Z,19.43
2023-05-02T06:13:29.409Z,19.39
2023-05-02T06:16:02.157Z,19.39
2023-05-02T06:18:30.219Z,19.16
2023-05-02T06:20:57.659Z,19.08
2023-05-02T06:23:24.627Z,19.16
2023-05-02T06:25:51.701Z,19.19
2023-05-02T06:28:18.684Z,19.08
2023-05-02T06:30:45.654Z,18.92
2023-05-02T06:33:13.053Z,19.05
2023-05-02T06:35:40.102Z,18.80
2023-05-02T06:38:07.298Z,19.04
2023-05-02T06:40:36.426Z,19.13
2023-05-02T06:43:03.460Z,19.23
2023-05-02T06:45:30.711Z,19.21
2023-05-02T06:47:57.928Z,19.18
2023-05-02T06:50:24.994Z,19.13
2023-05-02T06:52:51.984Z,19.08
2023-05-02T06:55:19.024Z,19.45
2023-05-02T06:57:46.397Z,19.55
2023-05-02T07:00:14.485Z,19.43
2023-05-02T07:02:41.779Z,19.35
2023-05-02T07:05:09.407Z,19.44
2023-05-02T07:07:36.600Z,19.33
2023-05-02T07:10:04.711Z,19.05
2023-05-02T07:12:31.891Z,19.54
2023-05-02T07:14:58.967Z,19.54
2023-05-02T07:17:26.373Z,19.49
2023-05-02T07:19:54.203Z,19.83
2023-05-02T07:22:21.703Z,19.33
2023-05-02T07:24:48.708Z,19.43
2023-05-02T07:27:15.768Z,19.51
2023-05-02T07:29:42.798Z,19.29
2023-05-02T07:32:10.019Z,19.28
2023-05-02T07:34:37.065Z,19.58
2023-05-02T07:37:04.068Z,19.38
2023-05-02T07:39:33.764Z,19.69
2023-05-02T07:42:01.331Z,19.90
2023-05-02T07:44:28.280Z,19.67
2023-05-02T07:46:55.571Z,19.26
2023-05-02T07:49:22.560Z,19.43
2023-05-02T07:51:49.526Z,19.37
2023-05-02T07:54:21.718Z,19.59
2023-05-02T07:56:49.210Z,19.58
2023-05-02T07:59:16.167Z,19.58
2023-05-02T08:01:44.269Z,19.64
2023-05-02T08:04:12.072Z,19.81
2023-05-02T08:06:39.268Z,18.95
2023-05-02T08:09:06.271Z,19.39
2023-05-02T08:11:33.249Z,19.08
2023-05-02T08:14:00.208Z,19.41
2023-05-02T08:16:27.227Z,19.60
2023-05-02T08:18:54.966Z,19.55
2023-05-02T08:21:22.231Z,19.57
2023-05-02T08:23:49.201Z,18.90
2023-05-02T08:26:19.081Z,19.48
2023-05-02T08:28:46.038Z,19.62
2023-05-02T08:31:13.046Z,19.82
2023-05-02T08:33:40.894Z,19.95
2023-05-02T08:36:16.247Z,20.02
2023-05-02T08:38:44.571Z,19.83
2023-05-02T08:41:16.974Z,20.02
2023-05-02T08:43:47.309Z,19.79
2023-05-02T08:46:17.274Z,19.78
2023-05-02T08:48:49.510Z,20.13
2023-05-02T08:53:45.835Z,20.07
2023-05-02T08:56:13.654Z,19.97
2023-05-02T08:58:41.783Z,19.81
2023-05-02T09:01:15.207Z,20.52
2023-05-02T09:03:45.318Z,20.45
2023-05-02T09:06:16.258Z,20.48
2023-05-02T09:08:46.067Z,20.52
2023-05-02T09:11:13.555Z,20.17
2023-05-02T09:13:43.762Z,20.38
2023-05-02T09:16:22.802Z,21.26
2023-05-02T09:18:58.263Z,20.92
2023-05-02T09:21:35.633Z,21.30
2023-05-02T09:24:04.422Z,21.32
2023-05-02T09:26:35.040Z,20.61
2023-05-02T09:29:06.024Z,20.46
2023-05-02T09:31:55.017Z,20.78
2023-05-02T09:34:23.512Z,20.84
2023-05-02T09:36:54.780Z,21.16
2023-05-02T09:39:29.391Z,20.92
2023-05-02T09:41:57.812Z,21.01
2023-05-02T09:44:27.478Z,21.65
2023-05-02T09:46:57.608Z,21.21
2023-05-02T09:49:46.136Z,21.39
2023-05-02T09:52:16.202Z,20.84
2023-05-02T09:54:44.077Z,21.30
2023-05-02T09:57:11.557Z,21.25
2023-05-02T09:59:41.010Z,20.75
2023-05-02T10:02:11.736Z,21.65
2023-05-02T10:04:40.174Z,21.38
2023-05-02T10:07:10.802Z,20.79
2023-05-02T10:09:45.023Z,20.34
2023-05-02T10:12:16.578Z,20.90
2023-05-02T10:14:51.514Z,21.42
2023-05-02T10:17:29.419Z,22.02
2023-05-02T10:20:07.981Z,20.96
2023-05-02T10:22:36.161Z,21.12
2023-05-02T10:25:04.570Z,21.34
2023-05-02T10:27:33.058Z,21.74
2023-05-02T10:30:02.378Z,21.96
2023-05-02T10:32:29.952Z,21.61
2023-05-02T10:35:05.833Z,22.05
2023-05-02T10:37:36.716Z,21.32
2023-05-02T10:40:06.062Z,21.91
2023-05-02T10:42:40.584Z,21.72
2023-05-02T10:45:33.762Z,22.32
2023-05-02T10:48:21.428Z,22.74
2023-05-02T10:50:57.116Z,21.95
2023-05-02T10:53:36.445Z,22.50
2023-05-02T10:56:12.559Z,22.91
2023-05-02T10:58:40.403Z,22.45
2023-05-02T11:01:28.492Z,22.47
2023-05-02T11:04:07.847Z,22.23
2023-05-02T11:06:57.705Z,22.12
2023-05-02T11:09:24.743Z,22.78
2023-05-02T11:11:55.456Z,22.73
2023-05-02T11:14:32.321Z,22.28
2023-05-02T11:17:01.857Z,23.53
2023-05-02T11:19:33.780Z,23.07
2023-05-02T11:22:33.624Z,24.64
2023-05-02T11:25:00.987Z,23.37
2023-05-02T11:27:31.286Z,22.96
2023-05-02T11:30:09.686Z,23.34
2023-05-02T11:32:46.322Z,23.40
2023-05-02T11:35:22.332Z,23.51
2023-05-02T11:38:04.793Z,24.00
2023-05-02T11:40:32.806Z,24.28
2023-05-02T11:43:01.538Z,24.83
2023-05-02T11:45:37.138Z,24.08
2023-05-02T11:48:08.201Z,24.38
2023-05-02T11:50:50.584Z,24.59
2023-05-02T11:53:22.495Z,24.88
2023-05-02T11:55:58.010Z,23.08
2023-05-02T11:58:30.004Z,23.04
2023-05-02T12:00:57.244Z,25.19
2023-05-02T12:03:30.787Z,24.11
2023-05-02T12:06:12.654Z,23.74
2023-05-02T12:08:41.019Z,23.82
2023-05-02T12:11:08.198Z,23.62
2023-05-02T12:13:35.508Z,24.21
2023-05-02T12:16:03.002Z,23.16
2023-05-02T12:18:30.182Z,23.14
2023-05-02T12:20:57.511Z,22.77
2023-05-02T12:23:28.965Z,22.76
2023-05-02T12:25:56.184Z,21.92
2023-05-02T12:28:24.099Z,22.19
2023-05-02T12:30:51.931Z,22.44
2023-05-02T12:33:19.394Z,22.54
2023-05-02T12:35:47.499Z,21.08
2023-05-02T12:38:23.038Z,22.14
2023-05-02T12:40:57.489Z,22.05
2023-05-02T12:43:24.614Z,21.98
2023-05-02T12:46:09.738Z,22.69
2023-05-02T12:48:36.821Z,23.06
2023-05-02T12:51:03.989Z,22.62
2023-05-02T12:53:45.854Z,23.85
2023-05-02T12:56:13.443Z,23.40
2023-05-02T12:58:45.887Z,23.22
2023-05-02T13:01:14.056Z,22.94
2023-05-02T13:03:42.594Z,22.38
2023-05-02T13:06:10.225Z,22.47
2023-05-02T13:08:37.573Z,21.66
2023-05-02T13:11:04.888Z,22.01
2023-05-02T13:13:32.768Z,21.90
2023-05-02T13:15:59.967Z,22.31
2023-05-02T13:18:28.237Z,22.43
2023-05-02T13:20:55.468Z,22.26
2023-05-02T13:23:22.732Z,23.22
2023-05-02T13:25:49.703Z,23.44
2023-05-02T13:28:16.743Z,23.12
2023-05-02T13:30:43.816Z,22.99
2023-05-02T13:33:10.885Z,22.98
2023-05-02T13:35:38.040Z,23.12
2023-05-02T13:38:05.040Z,23.10
2023-05-02T13:40:32.073Z,23.32
2023-05-02T13:42:59.207Z,23.77
2023-05-02T13:45:26.187Z,24.25
2023-05-02T13:47:53.241Z,24.35
2023-05-02T13:50:20.388Z,24.99
2023-05-02T13:52:49.086Z,24.66
2023-05-02T13:55:16.419Z,24.71
2023-05-02T13:57:43.605Z,24.09
2023-05-02T14:00:11.501Z,24.82
2023-05-02T14:02:39.305Z,25.25
2023-05-02T14:05:07.144Z,25.87
2023-05-02T14:07:34.273Z,25.40
2023-05-02T14:10:01.518Z,24.75
2023-05-02T14:12:29.229Z,23.94
2023-05-02T14:14:56.408Z,24.28
2023-05-02T14:17:25.259Z,24.90
2023-05-02T14:19:52.809Z,24.69
2023-05-02T14:22:19.762Z,23.55
2023-05-02T14:24:46.716Z,23.76
2023-05-02T14:27:18.114Z,23.74
2023-05-02T14:29:49.021Z,23.75
2023-05-02T14:32:16.522Z,23.87
2023-05-02T14:34:43.524Z,23.89
2023-05-02T14:37:10.536Z,24.66
2023-05-02T14:39:37.571Z,24.41
2023-05-02T14:42:04.739Z,24.38
2023-05-02T14:44:31.891Z,24.77
2023-05-02T14:46:58.958Z,24.34
2023-05-02T14:49:25.961Z,24.47
2023-05-02T14:51:53.302Z,24.36
2023-05-02T14:54:20.396Z,23.72
2023-05-02T14:56:48.296Z,23.87
2023-05-02T14:59:15.442Z,23.57
2023-05-02T15:01:43.148Z,23.98
2023-05-02T15:04:10.699Z,23.87
2023-05-02T15:06:38.261Z,23.54
2023-05-02T15:09:05.615Z,22.82
2023-05-02T15:11:32.604Z,22.74
2023-05-02T15:13:59.802Z,23.01
2023-05-02T15:16:27.525Z,22.81
2023-05-02T15:18:55.148Z,22.93
2023-05-02T15:21:22.776Z,23.67
2023-05-02T15:23:49.783Z,23.18
2023-05-02T15:26:16.853Z,23.26
2023-05-02T15:28:43.895Z,23.48
2023-05-02T15:31:10.826Z,23.67
2023-05-02T15:33:38.749Z,23.90
2023-05-02T15:36:05.993Z,22.64
2023-05-02T15:38:36.853Z,23.11
2023-05-02T15:41:03.827Z,23.16
2023-05-02T15:43:31.168Z,23.75
2023-05-02T15:45:59.822Z,23.65
2023-05-02T15:48:35.139Z,23.37
2023-05-02T15:51:03.024Z,23.36
2023-05-02T15:53:30.177Z,23.26
2023-05-02T15:55:57.483Z,23.59
2023-05-02T15:58:24.495Z,23.82
2023-05-02T16:00:52.545Z,23.13
2023-05-02T16:03:19.866Z,23.48
2023-05-02T16:05:47.076Z,23.60
2023-05-02T16:08:14.099Z,23.90
2023-05-02T16:10:43.407Z,23.82
2023-05-02T16:13:11.003Z,23.56
2023-05-02T16:15:38.969Z,23.34
2023-05-02T16:18:06.050Z,23.03
2023-05-02T16:20:36.530Z,23.05
2023-05-02T16:23:04.989Z,22.97
2023-05-02T16:25:32.688Z,23.01
2023-05-02T16:28:00.080Z,23.07
2023-05-02T16:30:28.202Z,23.81
2023-05-02T16:32:55.561Z,24.37
2023-05-02T16:35:22.610Z,23.52
2023-05-02T16:37:49.606Z,23.15
2023-05-02T16:40:16.746Z,22.75
2023-05-02T16:42:43.916Z,23.07
2023-05-02T16:45:11.153Z,23.13
2023-05-02T16:47:38.477Z,23.13
2023-05-02T16:50:06.764Z,23.05
2023-05-02T16:52:36.540Z,22.35
2023-05-02T16:55:04.529Z,22.95
2023-05-02T16:57:31.474Z,22.64
2023-05-02T16:59:58.995Z,23.25
2023-05-02T17:02:26.150Z,22.66
2023-05-02T17:04:53.273Z,22.76
2023-05-02T17:07:20.266Z,23.40
2023-05-02T17:09:47.358Z,23.15
2023-05-02T17:12:15.713Z,23.11
2023-05-02T17:14:43.483Z,22.97
2023-05-02T17:17:10.784Z,22.75
2023-05-02T17:19:39.499Z,23.10
2023-05-02T17:22:07.220Z,22.91
2023-05-02T17:24:34.493Z,23.54
2023-05-02T17:27:02.819Z,23.76
2023-05-02T17:29:30.020Z,23.82
2023-05-02T17:32:00.050Z,23.97
2023-05-02T17:34:28.871Z,24.13
2023-05-02T17:36:56.029Z,23.82
2023-05-02T17:39:23.530Z,23.65
2023-05-02T17:41:50.542Z,23.93
2023-05-02T17:44:17.827Z,23.75
2023-05-02T17:46:44.880Z,23.81
2023-05-02T17:49:11.923Z,23.85
2023-05-02T17:51:38.925Z,23.95
2023-05-02T17:54:06.117Z,24.23
2023-05-02T17:56:37.495Z,24.22
2023-05-02T17:59:05.165Z,24.03
2023-05-02T18:01:32.265Z,23.72
2023-05-02T18:03:59.578Z,23.52
2023-05-02T18:06:28.283Z,23.69
2023-05-02T18:08:55.411Z,23.34
2023-05-02T18:11:24.219Z,23.63
2023-05-02T18:13:51.493Z,23.62
2023-05-02T18:16:19.154Z,23.59
2023-05-02T18:18:46.208Z,23.62
2023-05-02T18:21:22.018Z,24.07
2023-05-02T18:23:49.642Z,23.40
2023-05-02T18:26:16.604Z,22.99
2023-05-02T18:28:45.099Z,23.02
2023-05-02T18:31:17.546Z,23.12
2023-05-02T18:33:45.761Z,23.12
2023-05-02T18:36:14.161Z,23.16
2023-05-02T18:38:42.069Z,23.11
2023-05-02T18:41:09.430Z,22.90
2023-05-02T18:43:36.615Z,23.61
2023-05-02T18:46:03.824Z,22.56
2023-05-02T18:48:31.428Z,22.29
2023-05-02T18:50:58.644Z,22.84
2023-05-02T18:53:26.394Z,23.11
2023-05-02T18:55:54.361Z,23.04
2023-05-02T18:58:22.566Z,22.83
2023-05-02T19:00:50.130Z,22.95
2023-05-02T19:03:17.395Z,23.27
2023-05-02T19:05:44.971Z,23.49
2023-05-02T19:08:12.146Z,23.76
2023-05-02T19:10:39.116Z,23.69
2023-05-02T19:13:06.272Z,23.73
2023-05-02T19:15:34.041Z,23.83
2023-05-02T19:18:01.150Z,23.83
2023-05-02T19:20:29.955Z,23.83
2023-05-02T19:23:14.780Z,23.81
2023-05-02T19:25:45.706Z,23.52
2023-05-02T19:28:14.074Z,23.52
2023-05-02T19:30:42.180Z,23.25
2023-05-02T19:33:09.524Z,23.36
2023-05-02T19:35:36.700Z,23.39
2023-05-02T19:38:03.957Z,23.41
2023-05-02T19:40:31.642Z,23.10
2023-05-02T19:42:58.656Z,22.95
2023-05-02T19:45:25.773Z,22.73
2023-05-02T19:47:53.046Z,22.78
2023-05-02T19:50:20.607Z,22.91
2023-05-02T19:52:47.719Z,22.79
2023-05-02T19:55:16.239Z,22.72
2023-05-02T19:57:44.665Z,22.64
2023-05-02T20:00:13.140Z,22.62
2023-05-02T20:02:40.260Z,22.53
2023-05-02T20:05:08.061Z,22.36
2023-05-02T20:07:35.186Z,22.36
2023-05-02T20:10:02.483Z,22.40
2023-05-02T20:12:29.727Z,22.28
2023-05-02T20:14:56.680Z,22.22
2023-05-02T20:17:23.629Z,22.23
2023-05-02T20:19:50.615Z,22.15
2023-05-02T20:22:18.231Z,22.15
2023-05-02T20:24:45.221Z,22.16
2023-05-02T20:27:12.203Z,22.10
2023-05-02T20:29:39.163Z,22.11
2023-05-02T20:32:06.190Z,22.03
2023-05-02T20:34:36.594Z,22.35
2023-05-02T20:37:07.010Z,22.05
2023-05-02T20:39:34.183Z,21.89
2023-05-02T20:42:01.450Z,21.94
2023-05-02T20:44:30.078Z,21.94
2023-05-02T20:46:57.125Z,21.86
2023-05-02T20:49:24.134Z,22.00
2023-05-02T20:51:51.698Z,22.12
2023-05-02T20:54:18.863Z,22.09
2023-05-02T20:56:45.881Z,22.07
2023-05-02T20:59:13.016Z,22.12
2023-05-02T21:01:40.121Z,21.97
2023-05-02T21:04:07.203Z,21.96
2023-05-02T21:06:34.254Z,22.16
2023-05-02T21:09:02.227Z,22.09
2023-05-02T21:11:29.427Z,22.07
2023-05-02T21:13:56.422Z,22.16
2023-05-02T21:16:24.027Z,22.30
2023-05-02T21:18:50.952Z,22.17
2023-05-02T21:21:17.935Z,22.18
2023-05-02T21:23:45.121Z,21.92
2023-05-02T21:26:12.263Z,21.95
2023-05-02T21:28:39.499Z,22.06
2023-05-02T21:31:07.871Z,22.20
2023-05-02T21:33:35.692Z,22.20
2023-05-02T21:36:03.139Z,21.85
2023-05-02T21:38:30.479Z,21.60
2023-05-02T21:41:03.131Z,22.24
2023-05-02T21:43:34.612Z,21.70
2023-05-02T21:46:01.623Z,22.01
2023-05-02T21:48:28.616Z,21.82
2023-05-02T21:50:55.680Z,21.92
2023-05-02T21:53:22.671Z,21.62
2023-05-02T21:55:49.571Z,21.30
2023-05-02T21:58:16.488Z,21.49
2023-05-02T22:00:43.492Z,21.73
2023-05-02T22:03:11.961Z,21.58
2023-05-02T22:05:42.910Z,21.26
2023-05-02T22:08:12.077Z,21.19
2023-05-02T22:10:44.190Z,21.43
2023-05-02T22:13:14.305Z,21.54
2023-05-02T22:15:46.809Z,21.77
2023-05-02T22:18:17.875Z,21.85
2023-05-02T22:20:45.466Z,21.52
2023-05-02T22:23:12.982Z,21.48
2023-05-02T22:25:42.487Z,21.60
2023-05-02T22:28:13.805Z,21.38
2023-05-02T22:30:44.591Z,21.49
2023-05-02T22:33:12.167Z,21.45
2023-05-02T22:35:39.354Z,21.19
2023-05-02T22:38:10.915Z,21.31
2023-05-02T22:40:38.053Z,21.17
2023-05-02T22:43:05.033Z,21.42
2023-05-02T22:45:31.987Z,21.33
2023-05-02T22:47:59.117Z,21.26
2023-05-02T22:50:27.683Z,21.27
2023-05-02T22:52:59.620Z,20.66
2023-05-02T22:55:26.596Z,20.98
2023-05-02T22:57:53.560Z,21.11
2023-05-02T23:00:22.538Z,21.14
2023-05-02T23:02:49.755Z,20.90
2023-05-02T23:05:16.922Z,21.15
2023-05-02T23:07:44.069Z,21.18
2023-05-02T23:10:11.086Z,21.04
2023-05-02T23:12:39.177Z,21.10
2023-05-02T23:15:07.375Z,21.10
2023-05-02T23:17:41.239Z,21.32
2023-05-02T23:20:10.318Z,20.98
2023-05-02T23:22:43.806Z,21.26
2023-05-02T23:25:12.732Z,21.13
2023-05-02T23:27:39.686Z,21.11
2023-05-02T23:30:07.939Z,21.33
2023-05-02T23:32:35.072Z,20.93
2023-05-02T23:35:02.767Z,21.04
2023-05-02T23:37:29.743Z,20.93
2023-05-02T23:39:58.150Z,21.04
2023-05-02T23:42:25.113Z,20.89
2023-05-02T23:44:53.860Z,20.75
2023-05-02T23:47:22.851Z,20.88
2023-05-02T23:49:49.906Z,20.72
2023-05-02T23:52:16.847Z,20.81
2023-05-02T23:54:44.407Z,20.92
2023-05-02T23:57:11.879Z,20.64
2023-05-02T23:59:38.830Z,21.02
